createdAt,value
2023-04-25T00:01:42.930Z,100891.78
2023-04-25T00:04:13.666Z,100893.69
2023-04-25T00:06:45.100Z,100890.41
2023-04-25T00:09:15.064Z,100890.34
2023-04-25T00:11:45.277Z,100899.50
2023-04-25T00:14:15.523Z,100888.13
2023-04-25T00:16:45.794Z,100888.88
2023-04-25T00:19:16.588Z,100887.25
2023-04-25T00:21:48.730Z,100892.44
2023-04-25T00:24:19.054Z,100898.44
2023-04-25T00:26:49.101Z,100897.16
2023-04-25T00:29:18.831Z,100893.53
2023-04-25T00:31:48.758Z,100895.09
2023-04-25T00:34:18.836Z,100901.91
2023-04-25T00:36:50.631Z,100894.16
2023-04-25T00:39:20.850Z,100901.81
2023-04-25T00:41:54.623Z,100898.91
2023-04-25T00:44:25.767Z,100903.72
2023-04-25T00:46:57.472Z,100901.28
2023-04-25T00:49:27.757Z,100898.00
2023-04-25T00:52:00.156Z,100902.00
2023-04-25T00:54:29.986Z,100891.91
2023-04-25T00:57:00.500Z,100902.72
2023-04-25T00:59:33.092Z,100907.91
2023-04-25T01:02:03.952Z,100904.97
2023-04-25T01:04:34.266Z,100905.72
2023-04-25T01:07:05.550Z,100908.88
2023-04-25T01:09:35.692Z,100904.00
2023-04-25T01:12:06.116Z,100904.72
2023-04-25T01:14:36.657Z,100903.09
2023-04-25T01:17:09.064Z,100905.44
2023-04-25T01:19:38.943Z,100898.19
2023-04-25T01:22:11.626Z,100902.16
2023-04-25T01:24:41.685Z,100911.81
2023-04-25T01:27:12.806Z,100897.28
2023-04-25T01:29:44.016Z,100913.00
2023-04-25T01:32:14.609Z,100914.19
2023-04-25T01:34:44.978Z,100910.09
2023-04-25T01:37:17.193Z,100914.53
2023-04-25T01:39:47.681Z,100907.63
2023-04-25T01:42:17.356Z,100910.81
2023-04-25T01:44:47.707Z,100911.19
2023-04-25T01:47:17.264Z,100913.50
2023-04-25T01:49:47.049Z,100923.91
2023-04-25T01:52:18.223Z,100921.47
2023-04-25T01:54:48.943Z,100921.84
2023-04-25T01:57:19.195Z,100925.84
2023-04-25T01:59:49.733Z,100929.00
2023-04-25T02:02:19.642Z,100931.38
2023-04-25T02:04:49.950Z,100935.69
2023-04-25T02:07:22.215Z,100932.44
2023-04-25T02:09:52.251Z,100929.19
2023-04-25T02:12:22.532Z,100927.53
2023-04-25T02:14:54.463Z,100941.59
2023-04-25T02:17:24.524Z,100934.72
2023-04-25T02:19:54.710Z,100941.16
2023-04-25T02:22:27.967Z,100936.69
2023-04-25T02:24:58.539Z,100940.69
2023-04-25T02:27:28.205Z,100944.66
2023-04-25T02:29:58.006Z,100941.38
2023-04-25T02:32:28.349Z,100936.50
2023-04-25T02:34:59.973Z,100938.50
2023-04-25T02:37:31.983Z,100936.84
2023-04-25T02:40:02.300Z,100943.22
2023-04-25T02:42:32.578Z,100947.19
2023-04-25T02:45:02.809Z,100946.72
2023-04-25T02:47:32.799Z,100949.91
2023-04-25T02:50:02.846Z,100951.44
2023-04-25T02:52:34.582Z,100953.44
2023-04-25T02:55:04.916Z,100948.19
2023-04-25T02:57:34.565Z,100949.34
2023-04-25T03:00:05.705Z,100952.50
2023-04-25T03:02:36.065Z,100957.31
2023-04-25T03:05:06.189Z,100952.88
2023-04-25T03:07:38.292Z,100954.88
2023-04-25T03:10:10.165Z,100957.69
2023-04-25T03:12:40.448Z,100963.66
2023-04-25T03:15:11.136Z,100956.06
2023-04-25T03:17:41.254Z,100954.41
2023-04-25T03:20:13.549Z,100955.22
2023-04-25T03:22:45.969Z,100958.84
2023-04-25T03:25:15.649Z,100960.03
2023-04-25T03:27:45.589Z,100958.41
2023-04-25T03:30:16.228Z,100960.38
2023-04-25T03:32:46.633Z,100951.94
2023-04-25T03:35:16.336Z,100953.94
2023-04-25T03:37:48.662Z,100957.56
2023-04-25T03:40:18.939Z,100949.13
2023-04-25T03:42:49.201Z,100954.75
2023-04-25T03:45:19.578Z,100949.97
2023-04-25T03:47:49.831Z,100942.34
2023-04-25T03:50:20.150Z,100948.78
2023-04-25T03:52:51.394Z,100961.22
2023-04-25T03:55:21.926Z,100954.75
2023-04-25T03:57:51.538Z,100960.38
2023-04-25T04:00:21.834Z,100964.81
2023-04-25T04:02:52.146Z,100961.22
2023-04-25T04:05:22.836Z,100961.22
2023-04-25T04:07:54.357Z,100956.75
2023-04-25T04:10:24.804Z,100964.38
2023-04-25T04:12:55.018Z,100964.38
2023-04-25T04:15:25.368Z,100964.81
2023-04-25T04:17:55.619Z,100963.66
2023-04-25T04:20:26.142Z,100971.38
2023-04-25T04:22:57.919Z,100968.56
2023-04-25T04:25:28.145Z,100969.03
2023-04-25T04:27:58.683Z,100967.03
2023-04-25T04:30:30.822Z,100965.03
2023-04-25T04:33:02.337Z,100970.28
2023-04-25T04:35:32.736Z,100968.28
2023-04-25T04:38:04.577Z,100974.38
2023-04-25T04:40:34.386Z,100974.84
2023-04-25T04:43:04.638Z,100972.50
2023-04-25T04:45:35.008Z,100970.94
2023-04-25T04:48:08.541Z,100970.59
2023-04-25T04:50:40.579Z,100975.03
2023-04-25T04:53:12.164Z,100980.31
2023-04-25T04:55:42.783Z,100981.97
2023-04-25T04:58:12.582Z,100975.13
2023-04-25T05:00:43.193Z,100977.59
2023-04-25T05:03:14.219Z,100985.34
2023-04-25T05:05:44.904Z,100978.16
2023-04-25T05:08:17.046Z,100974.59
2023-04-25T05:10:47.330Z,100983.97
2023-04-25T05:13:17.648Z,100974.44
2023-04-25T05:15:48.243Z,100982.66
2023-04-25T05:18:18.416Z,100982.41
2023-04-25T05:20:48.787Z,100987.41
2023-04-25T05:23:20.739Z,100980.31
2023-04-25T05:25:50.681Z,100987.25
2023-04-25T05:28:22.037Z,100985.78
2023-04-25T05:30:52.664Z,100984.69
2023-04-25T05:33:23.020Z,100977.16
2023-04-25T05:35:53.675Z,100972.81
2023-04-25T05:38:24.781Z,100976.09
2023-04-25T05:40:55.041Z,100976.97
2023-04-25T05:43:24.986Z,100977.06
2023-04-25T05:45:55.238Z,100965.91
2023-04-25T05:48:25.242Z,100974.06
2023-04-25T05:50:55.296Z,100969.34
2023-04-25T05:53:26.839Z,100972.72
2023-04-25T05:55:56.360Z,100973.25
2023-04-25T05:58:26.889Z,100971.81
2023-04-25T06:00:57.080Z,100967.88
2023-04-25T06:03:27.103Z,100976.03
2023-04-25T06:05:57.769Z,100971.31
2023-04-25T06:08:29.470Z,100973.03
2023-04-25T06:10:59.547Z,100982.41
2023-04-25T06:13:30.238Z,100973.19
2023-04-25T06:16:00.468Z,100972.47
2023-04-25T06:18:30.891Z,100972.19
2023-04-25T06:21:00.944Z,100974.72
2023-04-25T06:23:32.990Z,100971.97
2023-04-25T06:26:03.043Z,100969.22
2023-04-25T06:28:33.261Z,100978.59
2023-04-25T06:31:03.649Z,100981.47
2023-04-25T06:33:34.846Z,100979.94
2023-04-25T06:36:05.104Z,100986.50
2023-04-25T06:38:36.870Z,100988.66
2023-04-25T06:41:13.833Z,100991.16
2023-04-25T06:43:43.919Z,100996.53
2023-04-25T06:46:14.687Z,100997.41
2023-04-25T06:48:44.636Z,100991.03
2023-04-25T06:51:15.029Z,100996.28
2023-04-25T06:53:47.050Z,100999.19
2023-04-25T06:56:17.539Z,100990.81
2023-04-25T06:58:47.746Z,100995.34
2023-04-25T07:01:18.091Z,100989.38
2023-04-25T07:03:47.898Z,100994.34
2023-04-25T07:06:17.783Z,100984.38
2023-04-25T07:08:50.060Z,100988.19
2023-04-25T07:11:20.060Z,100989.16
2023-04-25T07:13:50.106Z,100987.66
2023-04-25T07:16:20.373Z,100984.53
2023-04-25T07:18:50.629Z,100983.41
2023-04-25T07:21:21.115Z,100970.59
2023-04-25T07:23:53.274Z,100981.59
2023-04-25T07:26:22.907Z,100976.06
2023-04-25T07:28:53.140Z,100971.72
2023-04-25T07:31:23.472Z,100973.06
2023-04-25T07:33:53.601Z,100966.75
2023-04-25T07:36:23.375Z,100968.03
2023-04-25T07:38:55.135Z,100970.97
2023-04-25T07:41:25.176Z,100965.81
2023-04-25T07:43:55.128Z,100967.16
2023-04-25T07:46:25.267Z,100968.44
2023-04-25T07:48:55.254Z,100960.47
2023-04-25T07:51:25.492Z,100959.31
2023-04-25T07:53:57.227Z,100954.59
2023-04-25T07:56:27.234Z,100967.56
2023-04-25T07:58:57.542Z,100958.78
2023-04-25T08:01:27.376Z,100957.28
2023-04-25T08:03:57.782Z,100949.28
2023-04-25T08:06:27.775Z,100954.97
2023-04-25T08:09:00.005Z,100956.25
2023-04-25T08:11:29.682Z,100957.91
2023-04-25T08:13:59.322Z,100960.44
2023-04-25T08:16:29.480Z,100958.44
2023-04-25T08:18:59.240Z,100962.13
2023-04-25T08:21:29.719Z,100949.22
2023-04-25T08:24:01.344Z,100946.44
2023-04-25T08:26:33.565Z,100943.25
2023-04-25T08:29:03.813Z,100946.13
2023-04-25T08:31:34.291Z,100950.97
2023-04-25T08:34:04.580Z,100940.09
2023-04-25T08:36:39.138Z,100940.53
2023-04-25T08:39:11.811Z,100940.59
2023-04-25T08:41:42.440Z,100935.38
2023-04-25T08:44:15.517Z,100934.97
2023-04-25T08:46:50.739Z,100937.44
2023-04-25T08:49:21.411Z,100924.91
2023-04-25T08:51:53.072Z,100934.66
2023-04-25T08:54:35.156Z,100931.41
2023-04-25T08:57:06.962Z,100922.56
2023-04-25T08:59:39.258Z,100924.16
2023-04-25T09:02:10.897Z,100931.09
2023-04-25T09:04:41.531Z,100917.72
2023-04-25T09:07:11.698Z,100918.16
2023-04-25T09:09:43.616Z,100916.97
2023-04-25T09:12:13.962Z,100922.63
2023-04-25T09:14:45.196Z,100910.09
2023-04-25T09:17:15.615Z,100907.66
2023-04-25T09:19:47.198Z,100906.47
2023-04-25T09:22:17.397Z,100908.50
2023-04-25T09:24:51.926Z,100904.91
2023-04-25T09:27:25.343Z,100898.41
2023-04-25T09:30:02.778Z,100901.66
2023-04-25T09:32:33.250Z,100904.50
2023-04-25T09:35:04.565Z,100899.28
2023-04-25T09:37:34.456Z,100891.59
2023-04-25T09:40:11.620Z,100886.34
2023-04-25T09:42:45.473Z,100890.81
2023-04-25T09:45:17.955Z,100882.31
2023-04-25T09:47:48.156Z,100893.63
2023-04-25T09:50:20.701Z,100894.06
2023-04-25T09:53:08.427Z,100889.63
2023-04-25T09:55:43.160Z,100893.25
2023-04-25T09:58:15.919Z,100890.88
2023-04-25T10:00:46.506Z,100888.03
2023-04-25T10:03:18.397Z,100882.81
2023-04-25T10:05:50.238Z,100893.72
2023-04-25T10:08:22.105Z,100886.88
2023-04-25T10:10:53.646Z,100888.91
2023-04-25T10:13:24.440Z,100879.19
2023-04-25T10:15:56.586Z,100873.97
2023-04-25T10:18:28.380Z,100880.41
2023-04-25T10:20:59.491Z,100880.03
2023-04-25T10:23:30.776Z,100877.19
2023-04-25T10:26:03.898Z,100883.28
2023-04-25T10:29:00.295Z,100878.03
2023-04-25T10:31:30.835Z,100883.28
2023-04-25T10:34:03.439Z,100878.03
2023-04-25T10:36:39.242Z,100886.97
2023-04-25T10:39:10.725Z,100874.81
2023-04-25T10:41:57.403Z,100877.28
2023-04-25T10:44:31.730Z,100879.28
2023-04-25T10:47:04.656Z,100873.59
2023-04-25T10:49:37.609Z,100868.41
2023-04-25T10:52:27.916Z,100871.22
2023-04-25T10:55:00.532Z,100868.78
2023-04-25T10:57:35.078Z,100868.41
2023-04-25T11:00:13.118Z,100877.69
2023-04-25T11:02:48.888Z,100871.22
2023-04-25T11:05:43.872Z,100875.69
2023-04-25T11:08:28.690Z,100868.00
2023-04-25T11:10:59.457Z,100862.34
2023-04-25T11:13:35.012Z,100881.78
2023-04-25T11:16:12.507Z,100875.28
2023-04-25T11:18:45.790Z,100869.63
2023-04-25T11:21:17.316Z,100867.63
2023-04-25T11:23:49.746Z,100876.13
2023-04-25T11:26:19.636Z,100867.63
2023-04-25T11:28:53.119Z,100861.13
2023-04-25T11:31:24.825Z,100859.50
2023-04-25T11:33:56.649Z,100865.16
2023-04-25T11:36:28.237Z,100868.00
2023-04-25T11:38:59.160Z,100860.34
2023-04-25T11:41:30.199Z,100855.88
2023-04-25T11:44:01.533Z,100854.66
2023-04-25T11:46:31.887Z,100851.84
2023-04-25T11:49:02.578Z,100855.47
2023-04-25T11:51:33.166Z,100854.66
2023-04-25T11:54:04.209Z,100849.81
2023-04-25T11:56:34.293Z,100855.47
2023-04-25T11:59:09.756Z,100844.16
2023-04-25T12:01:42.580Z,100849.00
2023-04-25T12:04:17.710Z,100844.53
2023-04-25T12:06:50.881Z,100840.88
2023-04-25T12:09:24.295Z,100842.09
2023-04-25T12:11:59.610Z,100838.88
2023-04-25T12:14:34.602Z,100841.25
2023-04-25T12:17:10.062Z,100841.66
2023-04-25T12:19:45.690Z,100838.00
2023-04-25T12:22:26.769Z,100835.16
2023-04-25T12:24:58.925Z,100835.97
2023-04-25T12:27:30.884Z,100840.81
2023-04-25T12:30:03.321Z,100834.34
2023-04-25T12:32:33.633Z,100827.06
2023-04-25T12:35:03.771Z,100830.25
2023-04-25T12:37:34.252Z,100835.13
2023-04-25T12:40:06.081Z,100832.69
2023-04-25T12:42:36.299Z,100824.56
2023-04-25T12:45:09.676Z,100821.75
2023-04-25T12:47:40.009Z,100823.78
2023-04-25T12:50:10.921Z,100820.09
2023-04-25T12:52:41.187Z,100824.16
2023-04-25T12:55:11.769Z,100818.09
2023-04-25T12:57:41.521Z,100820.91
2023-04-25T13:00:19.351Z,100822.13
2023-04-25T13:02:49.666Z,100824.53
2023-04-25T13:05:19.992Z,100822.91
2023-04-25T13:07:50.061Z,100817.63
2023-04-25T13:10:20.113Z,100814.38
2023-04-25T13:12:50.763Z,100809.13
2023-04-25T13:15:23.362Z,100813.94
2023-04-25T13:17:53.331Z,100811.53
2023-04-25T13:20:24.556Z,100811.53
2023-04-25T13:22:54.746Z,100814.72
2023-04-25T13:25:25.559Z,100820.78
2023-04-25T13:27:55.444Z,100815.53
2023-04-25T13:30:27.211Z,100811.88
2023-04-25T13:33:04.506Z,100805.78
2023-04-25T13:35:35.949Z,100806.19
2023-04-25T13:38:06.615Z,100808.59
2023-04-25T13:40:36.954Z,100804.13
2023-04-25T13:43:07.763Z,100803.72
2023-04-25T13:45:39.811Z,100804.09
2023-04-25T13:48:10.428Z,100796.81
2023-04-25T13:50:40.447Z,100804.50
2023-04-25T13:53:10.689Z,100807.72
2023-04-25T13:55:41.085Z,100802.44
2023-04-25T13:58:11.461Z,100800.00
2023-04-25T14:00:47.419Z,100809.28
2023-04-25T14:03:17.800Z,100802.38
2023-04-25T14:05:48.169Z,100821.75
2023-04-25T14:08:18.480Z,100816.09
2023-04-25T14:10:48.722Z,100816.50
2023-04-25T14:13:18.728Z,100811.19
2023-04-25T14:15:51.700Z,100811.59
2023-04-25T14:18:22.418Z,100810.78
2023-04-25T14:20:53.116Z,100811.16
2023-04-25T14:23:22.927Z,100814.38
2023-04-25T14:25:52.945Z,100814.78
2023-04-25T14:28:23.903Z,100812.31
2023-04-25T14:30:56.311Z,100802.59
2023-04-25T14:33:26.541Z,100799.34
2023-04-25T14:35:57.419Z,100799.75
2023-04-25T14:38:28.273Z,100802.16
2023-04-25T14:40:58.809Z,100794.88
2023-04-25T14:43:29.052Z,100800.09
2023-04-25T14:46:01.209Z,100800.47
2023-04-25T14:48:32.361Z,100795.22
2023-04-25T14:51:03.159Z,100795.59
2023-04-25T14:53:34.020Z,100787.50
2023-04-25T14:56:04.283Z,100794.38
2023-04-25T14:58:35.664Z,100797.59
2023-04-25T15:01:08.225Z,100795.97
2023-04-25T15:03:38.131Z,100792.72
2023-04-25T15:06:09.125Z,100791.06
2023-04-25T15:08:39.470Z,100793.09
2023-04-25T15:11:09.706Z,100784.19
2023-04-25T15:13:40.022Z,100778.09
2023-04-25T15:16:13.006Z,100782.13
2023-04-25T15:18:44.547Z,100776.88
2023-04-25T15:21:18.076Z,100780.09
2023-04-25T15:23:47.873Z,100774.81
2023-04-25T15:26:18.089Z,100776.00
2023-04-25T15:28:48.345Z,100780.03
2023-04-25T15:31:20.452Z,100779.63
2023-04-25T15:33:51.023Z,100778.38
2023-04-25T15:36:22.894Z,100783.63
2023-04-25T15:38:53.130Z,100777.53
2023-04-25T15:41:23.662Z,100783.19
2023-04-25T15:43:55.193Z,100785.59
2023-04-25T15:46:27.289Z,100776.66
2023-04-25T15:48:57.708Z,100794.81
2023-04-25T15:51:28.582Z,100787.91
2023-04-25T15:53:58.651Z,100798.78
2023-04-25T15:56:28.618Z,100794.31
2023-04-25T15:59:06.559Z,100795.53
2023-04-25T16:01:38.769Z,100791.47
2023-04-25T16:04:09.458Z,100800.34
2023-04-25T16:06:39.191Z,100797.88
2023-04-25T16:09:09.377Z,100789.00
2023-04-25T16:11:39.582Z,100787.72
2023-04-25T16:14:10.008Z,100794.59
2023-04-25T16:16:42.295Z,100799.00
2023-04-25T16:19:12.557Z,100793.75
2023-04-25T16:21:42.690Z,100791.31
2023-04-25T16:24:13.171Z,100794.50
2023-04-25T16:26:44.103Z,100795.69
2023-04-25T16:29:15.146Z,100798.91
2023-04-25T16:31:47.853Z,100803.75
2023-04-25T16:34:18.677Z,100800.50
2023-04-25T16:36:48.719Z,100797.25
2023-04-25T16:39:19.479Z,100802.09
2023-04-25T16:41:49.951Z,100804.47
2023-04-25T16:44:19.426Z,100807.66
2023-04-25T16:46:51.173Z,100801.22
2023-04-25T16:49:20.814Z,100808.47
2023-04-25T16:51:51.662Z,100801.97
2023-04-25T16:54:21.719Z,100817.28
2023-04-25T16:56:51.900Z,100816.88
2023-04-25T16:59:23.096Z,100817.25
2023-04-25T17:01:55.325Z,100819.63
2023-04-25T17:04:25.998Z,100820.81
2023-04-25T17:06:56.332Z,100815.97
2023-04-25T17:09:28.057Z,100822.81
2023-04-25T17:11:59.473Z,100821.97
2023-04-25T17:14:30.563Z,100828.41
2023-04-25T17:17:02.727Z,100814.66
2023-04-25T17:19:33.791Z,100828.38
2023-04-25T17:22:03.412Z,100830.34
2023-04-25T17:24:33.315Z,100829.88
2023-04-25T17:27:03.023Z,100833.09
2023-04-25T17:29:34.475Z,100830.28
2023-04-25T17:32:07.221Z,100832.66
2023-04-25T17:34:38.302Z,100832.22
2023-04-25T17:37:12.080Z,100830.63
2023-04-25T17:39:42.321Z,100848.75
2023-04-25T17:42:13.081Z,100851.94
2023-04-25T17:44:43.190Z,100855.16
2023-04-25T17:47:14.911Z,100854.31
2023-04-25T17:49:44.956Z,100860.38
2023-04-25T17:52:15.191Z,100862.38
2023-04-25T17:54:45.457Z,100866.41
2023-04-25T17:57:15.147Z,100860.31
2023-04-25T17:59:45.124Z,100864.31
2023-04-25T18:02:19.081Z,100866.34
2023-04-25T18:04:49.555Z,100866.72
2023-04-25T18:07:19.675Z,100863.44
2023-04-25T18:09:49.694Z,100861.84
2023-04-25T18:12:20.975Z,100861.00
2023-04-25T18:14:51.156Z,100863.03
2023-04-25T18:17:25.611Z,100863.38
2023-04-25T18:19:55.875Z,100864.97
2023-04-25T18:22:26.022Z,100860.97
2023-04-25T18:24:56.122Z,100865.34
2023-04-25T18:27:26.265Z,100873.00
2023-04-25T18:29:55.880Z,100867.75
2023-04-25T18:32:29.478Z,100868.94
2023-04-25T18:34:59.692Z,100867.28
2023-04-25T18:37:30.457Z,100864.03
2023-04-25T18:40:00.858Z,100868.88
2023-04-25T18:42:31.609Z,100868.44
2023-04-25T18:45:02.199Z,100871.25
2023-04-25T18:47:33.807Z,100871.63
2023-04-25T18:50:05.590Z,100872.00
2023-04-25T18:52:35.765Z,100876.03
2023-04-25T18:55:05.544Z,100877.22
2023-04-25T18:57:35.286Z,100879.22
2023-04-25T19:00:07.420Z,100877.97
2023-04-25T19:02:40.174Z,100897.72
2023-04-25T19:05:12.448Z,100889.22
2023-04-25T19:07:42.650Z,100880.69
2023-04-25T19:10:14.108Z,100887.88
2023-04-25T19:12:43.982Z,100880.19
2023-04-25T19:15:14.766Z,100879.75
2023-04-25T19:17:46.504Z,100889.38
2023-04-25T19:20:16.661Z,100894.56
2023-04-25T19:22:46.872Z,100883.66
2023-04-25T19:25:17.118Z,100884.03
2023-04-25T19:27:47.360Z,100890.03
2023-04-25T19:30:17.637Z,100886.78
2023-04-25T19:32:49.870Z,100885.53
2023-04-25T19:35:19.498Z,100882.25
2023-04-25T19:37:49.568Z,100877.00
2023-04-25T19:40:23.373Z,100875.75
2023-04-25T19:42:54.100Z,100872.09
2023-04-25T19:45:24.569Z,100874.47
2023-04-25T19:47:57.277Z,100868.84
2023-04-25T19:50:27.657Z,100870.84
2023-04-25T19:52:58.276Z,100867.59
2023-04-25T19:55:28.683Z,100867.13
2023-04-25T19:57:58.997Z,100859.06
2023-04-25T20:00:29.471Z,100861.44
2023-04-25T20:03:01.582Z,100859.44
2023-04-25T20:05:32.697Z,100853.38
2023-04-25T20:08:03.396Z,100859.38
2023-04-25T20:10:33.905Z,100861.81
2023-04-25T20:13:04.949Z,100858.56
2023-04-25T20:15:35.175Z,100865.38
2023-04-25T20:18:07.418Z,100867.41
2023-04-25T20:20:38.883Z,100875.03
2023-04-25T20:23:09.049Z,100868.59
2023-04-25T20:25:38.900Z,100866.94
2023-04-25T20:28:08.640Z,100866.50
2023-04-25T20:30:39.164Z,100862.88
2023-04-25T20:33:11.747Z,100857.97
2023-04-25T20:35:41.995Z,100862.38
2023-04-25T20:38:12.155Z,100861.94
2023-04-25T20:40:42.446Z,100857.47
2023-04-25T20:43:13.113Z,100863.50
2023-04-25T20:45:43.367Z,100868.31
2023-04-25T20:48:15.553Z,100864.69
2023-04-25T20:50:46.910Z,100868.31
2023-04-25T20:53:17.483Z,100871.50
2023-04-25T20:55:47.590Z,100873.53
2023-04-25T20:58:17.270Z,100870.69
2023-04-25T21:00:47.860Z,100869.06
2023-04-25T21:03:19.535Z,100876.69
2023-04-25T21:05:49.480Z,100875.88
2023-04-25T21:08:19.572Z,100875.06
2023-04-25T21:10:49.646Z,100875.06
2023-04-25T21:13:19.699Z,100864.97
2023-04-25T21:15:49.932Z,100863.34
2023-04-25T21:18:21.718Z,100861.34
2023-04-25T21:20:51.905Z,100859.72
2023-04-25T21:23:22.687Z,100865.72
2023-04-25T21:25:54.524Z,100862.91
2023-04-25T21:28:24.121Z,100865.72
2023-04-25T21:30:54.522Z,100866.09
2023-04-25T21:33:26.484Z,100866.91
2023-04-25T21:35:56.974Z,100865.28
2023-04-25T21:38:27.255Z,100860.84
2023-04-25T21:40:57.557Z,100861.22
2023-04-25T21:43:27.501Z,100864.84
2023-04-25T21:46:21.446Z,100851.94
2023-04-25T21:48:50.472Z,100852.31
2023-04-25T21:51:20.928Z,100861.91
2023-04-25T21:53:51.840Z,100850.66
2023-04-25T21:56:21.956Z,100853.47
2023-04-25T21:58:53.603Z,100851.84
2023-04-25T22:01:24.026Z,100858.66
2023-04-25T22:03:57.200Z,100860.66
2023-04-25T22:06:28.989Z,100858.19
2023-04-25T22:08:59.330Z,100858.59
2023-04-25T22:11:30.229Z,100859.78
2023-04-25T22:13:59.986Z,100866.22
2023-04-25T22:16:29.929Z,100858.13
2023-04-25T22:19:02.014Z,100855.31
2023-04-25T22:21:32.418Z,100856.50
2023-04-25T22:24:02.104Z,100853.69
2023-04-25T22:26:32.300Z,100847.25
2023-04-25T22:29:03.006Z,100845.59
2023-04-25T22:31:33.937Z,100843.19
2023-04-25T22:34:05.830Z,100838.72
2023-04-25T22:36:36.740Z,100843.53
2023-04-25T22:39:07.312Z,100837.44
2023-04-25T22:41:37.507Z,100837.44
2023-04-25T22:44:07.467Z,100840.63
2023-04-25T22:46:37.809Z,100843.47
2023-04-25T22:49:09.342Z,100845.47
2023-04-25T22:51:39.597Z,100843.00
2023-04-25T22:54:10.296Z,100847.00
2023-04-25T22:56:40.067Z,100842.59
2023-04-25T22:59:11.966Z,100851.38
2023-04-25T23:01:42.489Z,100843.66
2023-04-25T23:04:15.198Z,100852.97
2023-04-25T23:06:45.807Z,100846.88
2023-04-25T23:09:16.431Z,100860.16
2023-04-25T23:11:47.029Z,100853.69
2023-04-25T23:14:17.220Z,100854.88
2023-04-25T23:16:47.732Z,100851.25
2023-04-25T23:19:19.585Z,100851.63
2023-04-25T23:21:49.206Z,100851.63
2023-04-25T23:24:19.057Z,100853.63
2023-04-25T23:26:48.768Z,100851.97
2023-04-25T23:29:19.380Z,100843.91
2023-04-25T23:31:49.619Z,100839.91
2023-04-25T23:34:22.439Z,100843.09
2023-04-25T23:36:52.489Z,100831.81
2023-04-25T23:39:23.047Z,100830.22
2023-04-25T23:41:52.797Z,100837.81
2023-04-25T23:44:23.228Z,100833.38
2023-04-25T23:46:53.466Z,100835.75
2023-04-25T23:49:25.732Z,100837.31
2023-04-25T23:51:55.674Z,100840.84
2023-04-25T23:54:26.015Z,100852.03
2023-04-25T23:56:55.558Z,100851.59
2023-04-25T23:59:25.215Z,100855.16
